ADDS METAR Data INFO
IDs: Format: Raw Decoded Include TAF

Data at: 0027 UTC 23 Oct 2017

KICT 222353Z 15006KT 10SM FEW225 16/05 A3009 RMK AO2 SLP190 T01560050 10217 20150 56006
KICT 222253Z 19003KT 10SM FEW220 19/03 A3009 RMK AO2 SLP188 T01890028
KICT 222153Z 25003KT 10SM FEW250 21/M03 A3010 RMK AO2 SLP191 T02061033
KICT 222053Z 28005KT 9SM CLR 21/M03 A3011 RMK AO2 SLP192 T02111033 56024
KICT 221953Z 26004KT 10SM CLR 21/M01 A3013 RMK AO2 SLP199 T02061006
KICT 221853Z 23008KT 10SM CLR 19/04 A3015 RMK AO2 SLP206 T01940039
KICT 221753Z VRB04KT 10SM CLR 19/03 A3019 RMK AO2 SLP217 T01890033 10189 20072 58000
KICT 221653Z VRB05KT 10SM CLR 17/04 A3020 RMK AO2 SLP222 T01720044
KICT 221553Z 33006KT 10SM SCT200 16/07 A3020 RMK AO2 SLP221 T01560072
KICT 221453Z 33006KT 10SM FEW200 13/06 A3019 RMK AO2 SLP220 T01280061 51013
KICT 221353Z 31006KT 10SM FEW200 09/06 A3018 RMK AO2 SLP218 T00940056
KICT 221253Z 31008KT 10SM CLR 07/05 A3016 RMK AO2 SLP213 T00720050
KICT 221153Z 32011KT 10SM CLR 08/06 A3015 RMK AO2 SLP209 70059 T00780056 10133 20067 51021
KICT 221053Z 31007KT 10SM CLR 07/05 A3013 RMK AO2 SLP203 T00670050
KICT 220953Z 31006KT 10SM CLR 08/06 A3011 RMK AO2 PRESRR SLP193 T00780056
KICT 220853Z 31003KT 10SM CLR 09/06 A3008 RMK AO2 SLP185 T00940061 51025
KICT 220753Z 31006KT 10SM SCT180 10/06 A3005 RMK AO2 SLP169 T01000061
KICT 220653Z 35005KT 10SM OVC150 12/06 A3006 RMK AO2 SLP170 T01220061
KICT 220553Z 36009KT 10SM OVC150 13/06 A3001 RMK AO2 SLP153 60008 T01330061 10156 20128 402440128 51023
KICT 220453Z 02012KT 10SM OVC110 14/07 A3000 RMK AO2 SLP151 OCNL LTGICCG SE T01390067
KICT 220353Z 36010KT 10SM OVC110 14/08 A3001 RMK AO2 RAE13 TSE09 SLP153 OCNL LTGICCG DSNT E-SE P0000 T01390083
KICT 220310Z 01012KT 10SM -RA FEW060 SCT100 OVC120 14/10 A2996 RMK AO2 TSE09 OCNL LTGICCG DSNT E-SE SHRA DSNT NE-SE MOVG NE P0000 T01390100
KICT 220253Z 01010G17KT 10SM -TSRA OVC090CB 14/12 A2994 RMK AO2 RAB22 TSB26E27B30 SLP130 OCNL LTGICCG NE-S TS NE-SE MOVG NE P0002 60008 T01390117 53017
KICT 220232Z 03007KT 10SM -TSRA OVC085CB 14/12 A2994 RMK AO2 RAB22 TSB26E27B30 OCNL LTGICCG N-E-S TS SE-SW MOVG NE P0001 T01440117
KICT 220153Z 02007KT 10SM FEW042 BKN120 14/12 A2993 RMK AO2 LTG DSNT NE-SE RAE42 PRESRR SLP129 P0002 T01440117
KICT 220053Z 36011KT 10SM -RA FEW060 SCT080 OVC095 15/12 A2988 RMK AO2 LTG DSNT E TSE11 PRESRR SLP109 OCNL LTGICCC DSNT SE-E TS MOVD NE CB DSNT SE-E MOV NE P0004 T01500117
KICT 220039Z 36015KT 10SM -RA FEW060 BKN080 OVC095 15/12 A2984 RMK AO2 LTG DSNT ALQDS TSE11 OCNL LTGICCC DSNT S-SE-E TS MOVD NE CB DSNT S-SE-E MOV NE P0003 T01500117
KICT 220017Z 35013KT 10SM VCTS -RA FEW060 OVC095 15/12 A2986 RMK AO2 LTG DSNT ALQDS TSE11 OCNL LTGICCC VC S-SE-E TS VC S-SE-E MOV NE P0001 T01500122
KICT 212353Z 05009KT 10SM -TSRA FEW031 BKN060CB OVC090 16/13 A2988 RMK AO2 LTG DSNT ALQDS TSB18 SLP112 OCNL LTGICCC S-OVHD-E-NE TS S-OVHD-E-NE MOV NE P0021 60051 T01560128 10244 20156 53034
KICT 212333Z 02009G16KT 340V050 7SM -TSRA FEW035 BKN060 OVC085 16/13 A2987 RMK AO2 LTG DSNT ALQDS TSB18 OCNL LTGICCC S-OVHD-E-NE TS S-OVHD-E-NE MOV NE P0020 T01610128
KICT 212319Z 08010G20KT 050V120 2 1/2SM R01L/5000VP6000FT +TSRA BR SCT037 BKN060CB OVC085 16/14 A2984 RMK AO2 LTG DSNT ALQDS TSB18 OCNL LTGICCC S-OVHD-E-NE TS S-OVHD-E-NE MOV NE P0008 T01610139
KICT 212253Z 08007KT 10SM VCTS -RA BKN047 BKN060 OVC090 16/15 A2980 RMK AO2 LTG DSNT ALQDS RAB47 SLP083 OCNL LTGIC VC S-SE TS VC S-SE MOV NE P0000 T01610150
KICT 212240Z 03008KT 10SM VCTS BKN045CB OVC055 17/15 A2979 RMK AO2 LTG DSNT ALQDS OCNL LTGIC VC S-SE TS VC S-SE MOV NE T01670150
KICT 212153Z 08005KT 10SM FEW031 SCT065 BKN080 BKN160 17/15 A2980 RMK AO2 LTG DSNT NE-S RAE10B16E41 TSE05E45 SLP083 OCNL LTGICCC DSNT NE-S TS MOVD NE CB DSNT NE-S SHRA DSNT NE-S P0010 T01720150
KICT 212111Z 11003KT 10SM VCTS FEW031 BKN035CB BKN070 BKN140 16/15 A2979 RMK AO2 LTG DSNT ALQDS RAE10 TSE05 OCNL LTGICCC VC S-SE-E TS VC S-SE-E MOV NE P0010 T01610150
KICT 212102Z VRB03KT 3SM -TSRA BR FEW031 BKN035 BKN070 BKN140 17/14 A2978 RMK AO2 LTG DSNT ALQDS P0010 T01670144
KICT 212042Z 31018KT 5SM TSRA FEW029 BKN037CB BKN055 BKN140 18/13 A2977 RMK AO2 PK WND 32026/2027 WSHFT 2024 LTG DSNT ALQDS RAB31 TSB35 OCNL LTGICCC S-OVHD-SE TS S-OVHD-SE MOV NE P0001 T01830128
KICT 212035Z 31012G25KT 9SM -TSRA FEW025 BKN037CB BKN070 19/13 A2977 RMK AO2 PK WND 32026/2027 LTG DSNT NE AND S AND SW RAB31 TSB35 OCNL LTGIC VC S-SE TS VC S-SE MOV NE P0000 T01940128
KICT 211953Z 21014KT 10SM FEW031 BKN042 OVC070 23/20 A2976 RMK AO2 LTG DSNT NE AND SW RAB1854E1858B34E51 SLP065 TS DSNT N-NE MOVG NE P0007 T02280200
KICT 211951Z 21012KT 10SM SCT033 BKN044 OVC070 23/20 A2976 RMK AO2 LTG DSNT NE RAB1854E1858B34E51 TS DSNT N-NE MOVG NE P0007
KICT 211936Z 20018G23KT 6SM VCTS -RA BKN035CB BKN045 OVC070 23/19 A2976 RMK AO2 LTG DSNT NE RAB1854E1858B34 TS DSNT N-NE MOVG NE P0000 T02330189
KICT 211915Z 22019G25KT 10SM FEW029 BKN043 OVC065 24/18 A2976 RMK AO2 LTG DSNT NE RAB1854E1858 TS DSNT N-NE MOVG NE P0000 T02390183
KICT 211904Z 21017G22KT 10SM VCTS BKN026CB BKN034 OVC050 23/19 A2976 RMK AO2 RAB1854E1858 TS VC MOV N-NE P0000 T02330189
KICT 211857Z 21014G21KT 10SM VCTS -RA SCT024 BKN030 OVC050 23/19 A2976 RMK AO2 RAB54 P0000 T02330194
KICT 211853Z 20017G25KT 10SM BKN026 BKN031 OVC039 23/19 A2977 RMK AO2 PK WND 19029/1842 RAB15E44 SLP067 P0000 T02330189
KICT 211753Z 19023G28KT 10SM SCT024 BKN033 OVC065 23/19 A2978 RMK AO2 PK WND 19035/1703 SLP073 60000 T02330189 10244 20200 53002
KICT 211653Z 19026G34KT 10SM FEW030 BKN044 BKN070 24/19 A2977 RMK AO2 PK WND 19034/1643 LTG DSNT SE RAE41 SLP068 P0000 T02390189
KICT 211553Z 18018KT 10SM -RA BKN020 BKN026 OVC039 22/19 A2978 RMK AO2 PK WND 18029/1458 RAB53 SLP074 P0000 T02170189
KICT 211524Z 19018G24KT 10SM BKN018 BKN028 OVC037 21/18 A2979 RMK AO2 PK WND 18029/1458 T02110183
KICT 211500Z 18021G29KT 10SM FEW016 SCT020 OVC034 21/18 A2978 RMK AO2 PK WND 18029/1458 T02110183
KICT 211453Z 19019G26KT 10SM BKN016 BKN025 OVC034 21/18 A2978 RMK AO2 PK WND 17029/1425 SLP071 T02110183 53011
KICT 211353Z 17021G30KT 10SM BKN016 BKN025 OVC034 20/18 A2976 RMK AO2 PK WND 17031/1326 SLP066 T02000183
KICT 211253Z 16020G28KT 10SM BKN016 OVC025 20/18 A2975 RMK AO2 PK WND 17032/1156 SLP062 T02000183